sensor_id;sensor_type;location;lat;lon;timestamp;P1;durP1;ratioP1;P2;durP2;ratioP2
75516;SDS011;64097;52.548;13.406;2023-02-01T06:03:25;14.35;;;3.28;;
75516;SDS011;64097;52.548;13.406;2023-02-01T06:05:52;18.70;;;4.00;;
75516;SDS011;64097;52.548;13.406;2023-02-01T06:08:18;14.23;;;3.50;;
75516;SDS011;64097;52.548;13.406;2023-02-01T06:10:44;14.25;;;3.53;;
75516;SDS011;64097;52.548;13.406;2023-02-01T06:13:09;17.98;;;3.75;;
75516;SDS011;64097;52.548;13.406;2023-02-01T06:15:35;14.52;;;3.85;;
75516;SDS011;64097;52.548;13.406;2023-02-01T06:18:02;12.63;;;3.00;;
75516;SDS011;64097;52.548;13.406;2023-02-01T06:20:28;14.02;;;3.45;;
75516;SDS011;64097;52.548;13.406;2023-02-01T06:22:54;13.70;;;3.50;;
75516;SDS011;64097;52.548;13.406;2023-02-01T06:25:20;14.25;;;3.30;;
75516;SDS011;64097;52.548;13.406;2023-02-01T06:27:46;12.38;;;2.85;;
75516;SDS011;64097;52.548;13.406;2023-02-01T06:30:12;12.93;;;3.33;;
75516;SDS011;64097;52.548;13.406;2023-02-01T06:32:40;16.27;;;3.88;;
75516;SDS011;64097;52.548;13.406;2023-02-01T06:35:09;12.70;;;3.10;;
75516;SDS011;64097;52.548;13.406;2023-02-01T06:37:40;12.30;;;3.60;;
75516;SDS011;64097;52.548;13.406;2023-02-01T06:40:06;15.90;;;3.72;;
75516;SDS011;64097;52.548;13.406;2023-02-01T06:42:33;12.88;;;3.15;;
75516;SDS011;64097;52.548;13.406;2023-02-01T06:44:59;12.25;;;2.95;;
75516;SDS011;64097;52.548;13.406;2023-02-01T06:47:25;9.55;;;2.88;;
75516;SDS011;64097;52.548;13.406;2023-02-01T06:49:50;12.13;;;2.63;;
75516;SDS011;64097;52.548;13.406;2023-02-01T06:52:16;13.70;;;3.17;;
75516;SDS011;64097;52.548;13.406;2023-02-01T06:54:42;13.52;;;3.35;;
75516;SDS011;64097;52.548;13.406;2023-02-01T06:57:07;14.75;;;2.88;;
75516;SDS011;64097;52.548;13.406;2023-02-01T06:59:33;14.85;;;3.20;;
75516;SDS011;64097;52.548;13.406;2023-02-01T07:01:58;17.13;;;3.80;;
75516;SDS011;64097;52.548;13.406;2023-02-01T07:04:24;13.82;;;3.65;;
75516;SDS011;64097;52.548;13.406;2023-02-01T07:06:50;13.57;;;3.60;;
75516;SDS011;64097;52.548;13.406;2023-02-01T07:09:15;12.65;;;3.30;;
75516;SDS011;64097;52.548;13.406;2023-02-01T07:11:41;14.23;;;3.30;;
75516;SDS011;64097;52.548;13.406;2023-02-01T07:14:11;13.07;;;3.50;;
75516;SDS011;64097;52.548;13.406;2023-02-01T07:16:37;10.80;;;2.90;;
75516;SDS011;64097;52.548;13.406;2023-02-01T07:19:03;12.32;;;2.80;;
75516;SDS011;64097;52.548;13.406;2023-02-01T07:21:29;13.32;;;3.70;;
75516;SDS011;64097;52.548;13.406;2023-02-01T07:23:55;12.00;;;3.25;;
75516;SDS011;64097;52.548;13.406;2023-02-01T07:26:21;15.70;;;3.83;;
75516;SDS011;64097;52.548;13.406;2023-02-01T07:28:47;14.43;;;2.92;;
75516;SDS011;64097;52.548;13.406;2023-02-01T07:31:14;14.35;;;3.55;;
75516;SDS011;64097;52.548;13.406;2023-02-01T07:33:43;13.60;;;3.45;;
75516;SDS011;64097;52.548;13.406;2023-02-01T07:36:11;11.38;;;3.33;;
75516;SDS011;64097;52.548;13.406;2023-02-01T07:38:38;13.25;;;3.47;;
75516;SDS011;64097;52.548;13.406;2023-02-01T07:41:04;14.57;;;3.53;;
75516;SDS011;64097;52.548;13.406;2023-02-01T07:43:31;11.02;;;3.40;;
75516;SDS011;64097;52.548;13.406;2023-02-01T07:45:58;11.80;;;3.58;;
75516;SDS011;64097;52.548;13.406;2023-02-01T07:48:24;12.55;;;3.60;;
75516;SDS011;64097;52.548;13.406;2023-02-01T07:50:58;15.00;;;4.32;;
75516;SDS011;64097;52.548;13.406;2023-02-01T07:53:24;13.32;;;3.55;;
75516;SDS011;64097;52.548;13.406;2023-02-01T07:55:50;8.23;;;2.70;;
75516;SDS011;64097;52.548;13.406;2023-02-01T07:58:16;15.98;;;3.88;;
75516;SDS011;64097;52.548;13.406;2023-02-01T08:00:41;8.25;;;3.00;;
75516;SDS011;64097;52.548;13.406;2023-02-01T08:03:25;11.70;;;3.17;;
75516;SDS011;64097;52.548;13.406;2023-02-01T08:05:55;9.98;;;3.20;;
75516;SDS011;64097;52.548;13.406;2023-02-01T08:08:21;9.88;;;2.95;;
75516;SDS011;64097;52.548;13.406;2023-02-01T08:10:47;11.50;;;3.10;;
75516;SDS011;64097;52.548;13.406;2023-02-01T08:13:12;8.15;;;2.50;;
75516;SDS011;64097;52.548;13.406;2023-02-01T08:15:38;6.97;;;2.88;;
75516;SDS011;64097;52.548;13.406;2023-02-01T08:18:04;11.50;;;3.45;;
75516;SDS011;64097;52.548;13.406;2023-02-01T08:20:30;8.10;;;2.90;;
75516;SDS011;64097;52.548;13.406;2023-02-01T08:22:56;11.23;;;3.00;;
75516;SDS011;64097;52.548;13.406;2023-02-01T08:25:22;7.95;;;3.00;;
75516;SDS011;64097;52.548;13.406;2023-02-01T08:27:48;8.27;;;2.97;;
75516;SDS011;64097;52.548;13.406;2023-02-01T08:30:14;7.82;;;2.70;;
75516;SDS011;64097;52.548;13.406;2023-02-01T08:32:40;11.48;;;3.55;;
75516;SDS011;64097;52.548;13.406;2023-02-01T08:35:06;7.20;;;3.05;;
75516;SDS011;64097;52.548;13.406;2023-02-01T08:37:34;7.35;;;2.90;;
75516;SDS011;64097;52.548;13.406;2023-02-01T08:39:59;5.75;;;2.53;;
75516;SDS011;64097;52.548;13.406;2023-02-01T08:42:25;12.73;;;4.80;;
75516;SDS011;64097;52.548;13.406;2023-02-01T08:45:09;11.40;;;4.60;;
75516;SDS011;64097;52.548;13.406;2023-02-01T08:47:35;9.55;;;3.55;;
75516;SDS011;64097;52.548;13.406;2023-02-01T08:50:01;6.03;;;2.97;;
75516;SDS011;64097;52.548;13.406;2023-02-01T08:52:27;6.25;;;3.35;;
75516;SDS011;64097;52.548;13.406;2023-02-01T08:54:53;9.45;;;5.80;;
75516;SDS011;64097;52.548;13.406;2023-02-01T08:57:18;11.73;;;7.07;;
75516;SDS011;64097;52.548;13.406;2023-02-01T08:59:44;11.55;;;6.05;;
75516;SDS011;64097;52.548;13.406;2023-02-01T09:02:13;5.35;;;3.03;;
75516;SDS011;64097;52.548;13.406;2023-02-01T09:04:40;5.65;;;2.55;;
75516;SDS011;64097;52.548;13.406;2023-02-01T09:07:06;5.90;;;2.33;;
75516;SDS011;64097;52.548;13.406;2023-02-01T09:09:32;6.07;;;2.47;;
75516;SDS011;64097;52.548;13.406;2023-02-01T09:11:58;4.32;;;2.00;;
75516;SDS011;64097;52.548;13.406;2023-02-01T09:14:24;3.67;;;2.05;;
75516;SDS011;64097;52.548;13.406;2023-02-01T09:16:49;5.00;;;2.22;;
75516;SDS011;64097;52.548;13.406;2023-02-01T09:19:15;6.05;;;2.10;;
75516;SDS011;64097;52.548;13.406;2023-02-01T09:21:41;3.65;;;1.50;;
75516;SDS011;64097;52.548;13.406;2023-02-01T09:24:08;3.65;;;1.95;;
75516;SDS011;64097;52.548;13.406;2023-02-01T09:26:35;4.20;;;1.90;;
75516;SDS011;64097;52.548;13.406;2023-02-01T09:29:01;3.63;;;1.83;;
75516;SDS011;64097;52.548;13.406;2023-02-01T09:31:28;4.35;;;1.70;;
75516;SDS011;64097;52.548;13.406;2023-02-01T09:33:55;3.60;;;1.63;;
75516;SDS011;64097;52.548;13.406;2023-02-01T09:36:21;4.38;;;1.85;;
75516;SDS011;64097;52.548;13.406;2023-02-01T09:38:48;2.80;;;1.63;;
75516;SDS011;64097;52.548;13.406;2023-02-01T09:44:10;4.03;;;1.45;;
75516;SDS011;64097;52.548;13.406;2023-02-01T09:47:00;2.58;;;1.38;;
75516;SDS011;64097;52.548;13.406;2023-02-01T09:49:30;1.85;;;1.10;;
75516;SDS011;64097;52.548;13.406;2023-02-01T09:51:59;3.55;;;1.40;;
75516;SDS011;64097;52.548;13.406;2023-02-01T09:54:35;1.98;;;1.10;;
75516;SDS011;64097;52.548;13.406;2023-02-01T09:57:31;2.33;;;1.10;;
75516;SDS011;64097;52.548;13.406;2023-02-01T10:00:04;2.40;;;1.00;;
75516;SDS011;64097;52.548;13.406;2023-02-01T10:02:40;3.05;;;1.40;;
75516;SDS011;64097;52.548;13.406;2023-02-01T10:05:11;2.45;;;1.10;;
75516;SDS011;64097;52.548;13.406;2023-02-01T10:10:15;2.55;;;1.20;;
75516;SDS011;64097;52.548;13.406;2023-02-01T10:28:43;4.05;;;1.50;;
75516;SDS011;64097;52.548;13.406;2023-02-01T10:31:13;2.83;;;1.08;;
75516;SDS011;64097;52.548;13.406;2023-02-01T10:33:42;4.70;;;1.48;;
75516;SDS011;64097;52.548;13.406;2023-02-01T10:36:29;3.65;;;1.23;;
75516;SDS011;64097;52.548;13.406;2023-02-01T10:39:01;4.13;;;1.60;;
75516;SDS011;64097;52.548;13.406;2023-02-01T10:41:35;4.32;;;1.60;;
75516;SDS011;64097;52.548;13.406;2023-02-01T10:44:04;4.47;;;1.30;;
75516;SDS011;64097;52.548;13.406;2023-02-01T10:46:35;3.97;;;1.33;;
75516;SDS011;64097;52.548;13.406;2023-02-01T10:49:02;5.53;;;1.80;;
75516;SDS011;64097;52.548;13.406;2023-02-01T10:54:17;2.83;;;1.15;;
75516;SDS011;64097;52.548;13.406;2023-02-01T10:56:56;2.80;;;1.30;;
75516;SDS011;64097;52.548;13.406;2023-02-01T10:59:24;3.58;;;2.03;;
75516;SDS011;64097;52.548;13.406;2023-02-01T11:01:50;4.85;;;2.20;;
75516;SDS011;64097;52.548;13.406;2023-02-01T11:04:36;3.67;;;1.40;;
75516;SDS011;64097;52.548;13.406;2023-02-01T11:07:07;4.07;;;1.75;;
75516;SDS011;64097;52.548;13.406;2023-02-01T11:09:40;3.53;;;1.33;;
75516;SDS011;64097;52.548;13.406;2023-02-01T11:12:20;3.38;;;1.00;;
75516;SDS011;64097;52.548;13.406;2023-02-01T11:15:00;3.92;;;1.33;;
75516;SDS011;64097;52.548;13.406;2023-02-01T11:17:43;4.90;;;1.20;;
75516;SDS011;64097;52.548;13.406;2023-02-01T11:20:21;2.35;;;1.27;;
75516;SDS011;64097;52.548;13.406;2023-02-01T11:22:58;5.85;;;1.88;;
75516;SDS011;64097;52.548;13.406;2023-02-01T11:25:24;7.40;;;2.22;;
75516;SDS011;64097;52.548;13.406;2023-02-01T11:27:51;4.85;;;1.77;;
75516;SDS011;64097;52.548;13.406;2023-02-01T11:30:22;3.45;;;1.10;;
75516;SDS011;64097;52.548;13.406;2023-02-01T11:33:05;3.45;;;1.60;;
75516;SDS011;64097;52.548;13.406;2023-02-01T11:35:32;5.50;;;1.73;;
75516;SDS011;64097;52.548;13.406;2023-02-01T11:38:09;6.07;;;1.92;;
75516;SDS011;64097;52.548;13.406;2023-02-01T11:40:39;4.68;;;1.40;;
75516;SDS011;64097;52.548;13.406;2023-02-01T11:43:12;5.65;;;1.60;;
75516;SDS011;64097;52.548;13.406;2023-02-01T11:48:09;4.60;;;1.40;;
75516;SDS011;64097;52.548;13.406;2023-02-01T11:55:54;7.32;;;1.95;;
75516;SDS011;64097;52.548;13.406;2023-02-01T12:33:14;5.18;;;1.80;;
75516;SDS011;64097;52.548;13.406;2023-02-01T12:41:25;7.40;;;1.90;;
75516;SDS011;64097;52.548;13.406;2023-02-01T12:52:25;7.70;;;1.88;;
75516;SDS011;64097;52.548;13.406;2023-02-01T12:57:42;5.68;;;1.88;;
75516;SDS011;64097;52.548;13.406;2023-02-01T13:00:29;8.02;;;2.15;;
75516;SDS011;64097;52.548;13.406;2023-02-01T13:03:05;9.63;;;2.20;;
75516;SDS011;64097;52.548;13.406;2023-02-01T13:05:58;7.32;;;1.92;;
75516;SDS011;64097;52.548;13.406;2023-02-01T13:08:40;7.35;;;2.13;;
75516;SDS011;64097;52.548;13.406;2023-02-01T13:11:36;7.90;;;2.40;;
75516;SDS011;64097;52.548;13.406;2023-02-01T13:16:36;8.73;;;2.10;;
75516;SDS011;64097;52.548;13.406;2023-02-01T13:22:10;3.22;;;1.10;;
75516;SDS011;64097;52.548;13.406;2023-02-01T13:24:52;3.08;;;1.13;;
75516;SDS011;64097;52.548;13.406;2023-02-01T13:27:22;2.00;;;0.90;;
75516;SDS011;64097;52.548;13.406;2023-02-01T13:30:14;4.20;;;1.40;;
75516;SDS011;64097;52.548;13.406;2023-02-01T13:43:40;9.02;;;2.10;;
75516;SDS011;64097;52.548;13.406;2023-02-01T13:46:11;7.53;;;2.08;;
75516;SDS011;64097;52.548;13.406;2023-02-01T13:48:50;7.10;;;2.15;;
75516;SDS011;64097;52.548;13.406;2023-02-01T13:51:28;6.97;;;2.15;;
75516;SDS011;64097;52.548;13.406;2023-02-01T13:54:03;5.80;;;2.10;;
75516;SDS011;64097;52.548;13.406;2023-02-01T13:56:32;6.20;;;1.92;;
